createdAt,value
2022-08-26T00:01:44.187Z,100.00
2022-08-26T00:04:12.428Z,100.00
2022-08-26T00:06:42.287Z,100.00
2022-08-26T00:09:09.883Z,100.00
2022-08-26T00:11:37.007Z,100.00
2022-08-26T00:14:03.792Z,100.00
2022-08-26T00:16:31.938Z,100.00
2022-08-26T00:18:58.964Z,100.00
2022-08-26T00:21:25.575Z,100.00
2022-08-26T00:23:52.211Z,100.00
2022-08-26T00:26:19.145Z,100.00
2022-08-26T00:28:47.578Z,100.00
2022-08-26T00:31:14.618Z,100.00
2022-08-26T00:33:41.955Z,100.00
2022-08-26T00:36:09.537Z,100.00
2022-08-26T00:38:46.821Z,100.00
2022-08-26T00:41:13.508Z,100.00
2022-08-26T00:43:47.709Z,100.00
2022-08-26T00:46:21.762Z,100.00
2022-08-26T00:48:52.266Z,100.00
2022-08-26T00:51:24.766Z,100.00
2022-08-26T00:54:05.590Z,100.00
2022-08-26T00:56:41.589Z,100.00
2022-08-26T00:59:11.920Z,100.00
2022-08-26T01:01:41.308Z,100.00
2022-08-26T01:04:09.811Z,100.00
2022-08-26T01:06:36.703Z,100.00
2022-08-26T01:09:04.464Z,100.00
2022-08-26T01:11:32.550Z,100.00
2022-08-26T01:14:02.739Z,100.00
2022-08-26T01:16:30.632Z,100.00
2022-08-26T01:19:06.498Z,100.00
2022-08-26T01:21:41.237Z,100.00
2022-08-26T01:24:10.372Z,100.00
2022-08-26T01:26:41.375Z,100.00
2022-08-26T01:29:13.186Z,100.00
2022-08-26T01:31:45.973Z,100.00
2022-08-26T01:34:30.419Z,100.00
2022-08-26T01:37:13.668Z,100.00
2022-08-26T01:39:44.876Z,100.00
2022-08-26T01:42:14.653Z,100.00
2022-08-26T01:44:56.472Z,100.00
2022-08-26T01:47:26.546Z,100.00
2022-08-26T01:49:55.323Z,100.00
2022-08-26T01:52:28.241Z,100.00
2022-08-26T01:54:56.869Z,100.00
2022-08-26T01:57:24.661Z,100.00
2022-08-26T01:59:55.197Z,100.00
2022-08-26T02:02:23.393Z,100.00
2022-08-26T02:04:57.354Z,100.00
2022-08-26T02:07:26.668Z,100.00
2022-08-26T02:09:54.057Z,100.00
2022-08-26T02:12:21.111Z,100.00
2022-08-26T02:14:53.736Z,100.00
2022-08-26T02:17:23.705Z,100.00
2022-08-26T02:19:50.780Z,100.00
2022-08-26T02:22:22.785Z,100.00
2022-08-26T02:25:06.973Z,100.00
2022-08-26T02:27:35.765Z,100.00
2022-08-26T02:30:32.610Z,100.00
2022-08-26T02:33:03.747Z,100.00
2022-08-26T02:35:32.562Z,100.00
2022-08-26T02:38:00.360Z,100.00
2022-08-26T02:40:31.649Z,100.00
2022-08-26T02:42:58.486Z,100.00
2022-08-26T02:45:28.951Z,100.00
2022-08-26T02:47:58.545Z,100.00
2022-08-26T02:50:26.954Z,100.00
2022-08-26T02:52:53.752Z,100.00
2022-08-26T02:55:20.583Z,100.00
2022-08-26T02:57:47.212Z,100.00
2022-08-26T03:00:15.460Z,100.00
2022-08-26T03:02:42.268Z,100.00
2022-08-26T03:05:09.770Z,100.00
2022-08-26T03:07:36.382Z,100.00
2022-08-26T03:10:08.311Z,100.00
2022-08-26T03:12:35.758Z,100.00
2022-08-26T03:15:02.518Z,100.00
2022-08-26T03:17:46.371Z,100.00
2022-08-26T03:20:13.666Z,100.00
2022-08-26T03:22:42.850Z,100.00
2022-08-26T03:25:12.900Z,100.00
2022-08-26T03:27:41.585Z,100.00
2022-08-26T03:30:30.736Z,100.00
2022-08-26T03:32:57.714Z,100.00
2022-08-26T03:35:25.896Z,100.00
2022-08-26T03:37:53.590Z,100.00
2022-08-26T03:40:21.636Z,100.00
2022-08-26T03:42:49.227Z,100.00
2022-08-26T03:45:17.218Z,100.00
2022-08-26T03:47:48.009Z,100.00
2022-08-26T03:50:22.586Z,100.00
2022-08-26T03:52:51.917Z,100.00
2022-08-26T03:55:19.961Z,100.00
2022-08-26T03:57:50.826Z,100.00
2022-08-26T04:00:18.673Z,100.00
2022-08-26T04:02:48.893Z,100.00
2022-08-26T04:05:17.619Z,100.00
2022-08-26T04:07:44.735Z,100.00
2022-08-26T04:10:13.606Z,100.00
2022-08-26T04:12:42.434Z,100.00
2022-08-26T04:15:13.698Z,100.00
2022-08-26T04:17:40.982Z,100.00
2022-08-26T04:20:09.025Z,100.00
2022-08-26T04:22:35.767Z,100.00
2022-08-26T04:25:02.707Z,100.00
2022-08-26T04:27:33.778Z,100.00
2022-08-26T04:30:01.050Z,100.00
2022-08-26T04:32:27.716Z,100.00
2022-08-26T04:34:54.301Z,100.00
2022-08-26T04:37:25.112Z,100.00
2022-08-26T04:39:53.079Z,100.00
2022-08-26T04:42:22.797Z,100.00
2022-08-26T04:44:52.802Z,100.00
2022-08-26T04:47:19.389Z,100.00
2022-08-26T04:49:45.980Z,100.00
2022-08-26T04:52:12.734Z,100.00
2022-08-26T04:54:39.410Z,100.00
2022-08-26T04:57:08.687Z,100.00
2022-08-26T04:59:39.166Z,100.00
2022-08-26T05:02:07.029Z,100.00
2022-08-26T05:04:34.167Z,100.00
2022-08-26T05:07:02.770Z,100.00
2022-08-26T05:09:29.802Z,100.00
2022-08-26T05:11:57.262Z,100.00
2022-08-26T05:14:23.924Z,100.00
2022-08-26T05:16:51.441Z,100.00
2022-08-26T05:19:19.259Z,100.00
2022-08-26T05:21:47.174Z,100.00
2022-08-26T05:24:14.700Z,100.00
2022-08-26T05:26:41.643Z,100.00
2022-08-26T05:29:11.397Z,100.00
2022-08-26T05:31:38.102Z,100.00
2022-08-26T05:34:05.929Z,100.00
2022-08-26T05:36:35.925Z,100.00
2022-08-26T05:39:05.932Z,100.00
2022-08-26T05:41:36.416Z,100.00
2022-08-26T05:44:06.266Z,100.00
2022-08-26T05:46:34.565Z,99.11
2022-08-26T05:49:01.486Z,98.22
2022-08-26T05:51:30.407Z,93.25
2022-08-26T05:53:58.415Z,88.44
2022-08-26T05:56:26.230Z,90.64
2022-08-26T05:58:53.892Z,88.13
2022-08-26T06:01:26.439Z,82.29
2022-08-26T06:03:56.865Z,82.33
2022-08-26T06:06:32.321Z,79.45
2022-08-26T06:09:01.287Z,79.05
2022-08-26T06:11:32.168Z,76.64
2022-08-26T06:14:03.944Z,77.39
2022-08-26T06:16:32.715Z,71.65
2022-08-26T06:19:02.876Z,70.15
2022-08-26T06:21:32.152Z,70.31
2022-08-26T06:24:26.874Z,73.51
2022-08-26T06:26:56.914Z,72.46
2022-08-26T06:29:27.570Z,74.88
2022-08-26T06:31:56.204Z,72.76
2022-08-26T06:34:29.869Z,72.42
2022-08-26T06:36:59.799Z,69.35
2022-08-26T06:39:28.284Z,68.12
2022-08-26T06:41:57.800Z,71.63
2022-08-26T06:44:24.604Z,81.80
2022-08-26T06:46:51.382Z,79.53
2022-08-26T06:49:26.870Z,82.99
2022-08-26T06:51:56.521Z,89.51
2022-08-26T06:54:23.080Z,93.51
2022-08-26T06:56:49.758Z,98.13
2022-08-26T06:59:16.378Z,97.56
2022-08-26T07:01:46.836Z,97.83
2022-08-26T07:04:22.145Z,97.08
2022-08-26T07:06:52.656Z,96.73
2022-08-26T07:09:22.519Z,88.21
2022-08-26T07:11:49.589Z,78.26
2022-08-26T07:14:19.349Z,71.73
2022-08-26T07:16:49.054Z,70.42
2022-08-26T07:19:27.618Z,66.32
2022-08-26T07:22:03.421Z,68.68
2022-08-26T07:24:35.465Z,67.21
2022-08-26T07:27:06.776Z,64.82
2022-08-26T07:29:36.280Z,59.59
2022-08-26T07:32:04.206Z,59.38
2022-08-26T07:34:33.142Z,58.27
2022-08-26T07:37:00.452Z,60.28
2022-08-26T07:39:28.320Z,56.34
2022-08-26T07:41:59.590Z,57.19
2022-08-26T07:44:27.300Z,57.85
2022-08-26T07:46:54.268Z,58.62
2022-08-26T07:49:23.624Z,57.40
2022-08-26T07:51:51.398Z,53.40
2022-08-26T07:54:19.514Z,53.29
2022-08-26T07:56:48.659Z,53.61
2022-08-26T07:59:17.646Z,53.53
2022-08-26T08:01:45.910Z,51.09
2022-08-26T08:04:14.788Z,49.30
2022-08-26T08:06:41.889Z,48.41
2022-08-26T08:09:11.843Z,52.13
2022-08-26T08:11:38.455Z,52.57
2022-08-26T08:14:08.324Z,50.57
2022-08-26T08:16:37.253Z,49.58
2022-08-26T08:19:05.777Z,49.90
2022-08-26T08:21:32.400Z,48.58
2022-08-26T08:23:59.006Z,49.49
2022-08-26T08:26:26.613Z,48.83
2022-08-26T08:28:57.806Z,51.84
2022-08-26T08:31:56.176Z,49.02
2022-08-26T08:34:17.114Z,48.26
2022-08-26T08:36:46.369Z,47.23
2022-08-26T08:39:13.340Z,47.80
2022-08-26T08:42:09.104Z,48.42
2022-08-26T08:44:41.916Z,46.79
2022-08-26T08:47:20.739Z,46.61
2022-08-26T08:49:47.951Z,46.11
2022-08-26T08:52:35.177Z,46.29
2022-08-26T08:55:06.209Z,45.36
2022-08-26T08:58:02.594Z,45.41
2022-08-26T09:00:39.809Z,45.08
2022-08-26T09:03:35.522Z,45.97
2022-08-26T09:06:05.508Z,45.96
2022-08-26T09:08:35.847Z,44.57
2022-08-26T09:11:03.783Z,43.14
2022-08-26T09:13:31.737Z,43.88
2022-08-26T09:16:10.117Z,44.98
2022-08-26T09:19:04.951Z,44.15
2022-08-26T09:21:32.298Z,44.19
2022-08-26T09:24:00.301Z,41.89
2022-08-26T09:26:38.862Z,42.11
2022-08-26T09:29:24.699Z,43.49
2022-08-26T09:31:53.010Z,44.54
2022-08-26T09:34:27.131Z,43.54
2022-08-26T09:37:00.379Z,43.99
2022-08-26T09:39:37.851Z,44.71
2022-08-26T09:42:11.333Z,42.17
2022-08-26T09:45:01.899Z,42.21
2022-08-26T09:47:41.525Z,41.95
2022-08-26T09:50:28.919Z,43.09
2022-08-26T09:53:28.739Z,42.13
2022-08-26T09:56:14.879Z,43.17
2022-08-26T09:58:45.169Z,41.96
2022-08-26T10:01:23.834Z,42.74
2022-08-26T10:03:51.493Z,39.92
2022-08-26T10:06:18.161Z,42.10
2022-08-26T10:08:52.222Z,40.51
2022-08-26T10:11:39.918Z,40.62
2022-08-26T10:14:21.459Z,39.70
2022-08-26T10:17:03.337Z,39.21
2022-08-26T10:19:55.864Z,40.55
2022-08-26T10:22:41.070Z,43.13
2022-08-26T10:25:14.240Z,40.59
2022-08-26T10:28:00.134Z,40.39
2022-08-26T10:30:37.024Z,39.64
2022-08-26T10:33:12.966Z,38.29
2022-08-26T10:36:01.877Z,38.75
2022-08-26T10:38:40.292Z,37.16
2022-08-26T10:41:18.037Z,37.46
2022-08-26T10:44:00.383Z,37.49
2022-08-26T10:46:34.558Z,38.80
2022-08-26T10:49:11.077Z,39.88
2022-08-26T10:52:05.386Z,40.88
2022-08-26T10:54:53.498Z,42.08
2022-08-26T10:57:46.479Z,42.45
2022-08-26T11:00:50.892Z,42.20
2022-08-26T11:03:23.524Z,41.54
2022-08-26T11:06:18.256Z,42.42
2022-08-26T11:08:49.081Z,43.42
2022-08-26T11:11:36.060Z,42.69
2022-08-26T11:14:05.797Z,43.35
2022-08-26T11:16:42.946Z,42.77
2022-08-26T11:19:18.862Z,42.93
2022-08-26T11:21:51.231Z,41.37
2022-08-26T11:24:54.725Z,39.35
2022-08-26T11:27:27.189Z,40.34
2022-08-26T11:29:59.825Z,41.59
2022-08-26T11:32:45.362Z,40.54
2022-08-26T11:35:18.651Z,41.42
2022-08-26T11:37:48.203Z,41.35
2022-08-26T11:40:21.304Z,42.72
2022-08-26T11:43:03.312Z,42.30
2022-08-26T11:45:46.671Z,41.67
2022-08-26T11:48:27.050Z,42.25
2022-08-26T11:51:00.591Z,43.60
2022-08-26T11:53:29.854Z,45.32
2022-08-26T11:55:59.360Z,45.40
2022-08-26T11:58:27.723Z,45.37
2022-08-26T12:00:58.513Z,45.38
2022-08-26T12:03:45.791Z,46.28
2022-08-26T12:06:43.320Z,46.42
2022-08-26T12:09:25.730Z,46.49
2022-08-26T12:11:54.194Z,45.81
2022-08-26T12:14:27.336Z,44.87
2022-08-26T12:16:55.153Z,45.09
2022-08-26T12:19:32.746Z,46.61
2022-08-26T12:22:18.974Z,46.61
2022-08-26T12:24:58.584Z,48.91
2022-08-26T12:27:31.739Z,48.28
2022-08-26T12:30:19.290Z,47.30
2022-08-26T12:32:58.216Z,48.43
2022-08-26T12:35:26.974Z,48.44
2022-08-26T12:37:55.237Z,47.91
2022-08-26T12:40:33.397Z,48.79
2022-08-26T12:43:02.692Z,48.21
2022-08-26T12:45:33.705Z,48.14
2022-08-26T12:48:10.568Z,48.59
2022-08-26T12:50:44.318Z,48.22
2022-08-26T12:53:10.834Z,47.92
2022-08-26T12:55:45.391Z,48.23
2022-08-26T12:58:37.594Z,47.54
2022-08-26T13:01:04.325Z,47.78
2022-08-26T13:03:43.360Z,47.81
2022-08-26T13:06:15.684Z,47.10
2022-08-26T13:08:48.162Z,47.60
2022-08-26T13:11:34.684Z,48.21
2022-08-26T13:14:07.018Z,48.35
2022-08-26T13:16:35.239Z,49.33
2022-08-26T13:19:06.069Z,50.60
2022-08-26T13:21:48.394Z,52.70
2022-08-26T13:24:20.129Z,52.72
2022-08-26T13:26:51.891Z,53.21
2022-08-26T13:29:18.910Z,53.00
2022-08-26T13:31:46.317Z,54.24
2022-08-26T13:34:18.269Z,53.93
2022-08-26T13:36:50.614Z,55.55
2022-08-26T13:39:18.006Z,56.05
2022-08-26T13:41:44.968Z,55.80
2022-08-26T13:44:11.710Z,56.57
2022-08-26T13:46:40.316Z,58.66
2022-08-26T13:49:07.708Z,59.96
2022-08-26T13:51:34.414Z,58.84
2022-08-26T13:54:01.075Z,58.94
2022-08-26T13:56:29.744Z,59.62
2022-08-26T13:58:57.418Z,61.55
2022-08-26T14:01:24.883Z,62.24
2022-08-26T14:03:51.851Z,66.66
2022-08-26T14:06:19.355Z,64.82
2022-08-26T14:08:46.140Z,65.07
2022-08-26T14:11:13.083Z,69.54
2022-08-26T14:13:39.747Z,70.74
2022-08-26T14:16:15.999Z,77.70
2022-08-26T14:18:47.323Z,77.16
2022-08-26T14:21:16.987Z,76.72
2022-08-26T14:23:43.656Z,77.33
2022-08-26T14:26:11.673Z,77.38
2022-08-26T14:28:55.258Z,90.11
2022-08-26T14:31:23.607Z,90.11
2022-08-26T14:33:50.341Z,100.00
2022-08-26T14:36:28.921Z,100.00
2022-08-26T14:38:57.153Z,100.00
2022-08-26T14:41:25.506Z,100.00
2022-08-26T14:44:00.290Z,100.00
2022-08-26T14:46:32.011Z,100.00
2022-08-26T14:49:01.054Z,100.00
2022-08-26T14:51:29.866Z,100.00
2022-08-26T14:54:12.324Z,100.00
2022-08-26T14:56:42.732Z,100.00
2022-08-26T14:59:11.330Z,100.00
2022-08-26T15:01:39.010Z,100.00
2022-08-26T15:04:05.694Z,100.00
2022-08-26T15:06:36.009Z,100.00
2022-08-26T15:09:03.747Z,100.00
2022-08-26T15:11:32.949Z,100.00
2022-08-26T15:14:00.048Z,100.00
2022-08-26T15:16:28.493Z,100.00
2022-08-26T15:18:55.584Z,100.00
2022-08-26T15:21:24.887Z,100.00
2022-08-26T15:23:52.742Z,100.00
2022-08-26T15:26:20.390Z,100.00
2022-08-26T15:28:47.469Z,100.00
2022-08-26T15:31:14.221Z,100.00
2022-08-26T15:33:40.873Z,100.00
2022-08-26T15:36:08.744Z,100.00
2022-08-26T15:38:39.119Z,100.00
2022-08-26T15:41:08.662Z,100.00
2022-08-26T15:43:38.964Z,100.00
2022-08-26T15:46:10.950Z,100.00
2022-08-26T15:48:38.573Z,100.00
2022-08-26T15:51:06.199Z,100.00
2022-08-26T15:53:34.525Z,100.00
2022-08-26T15:56:02.113Z,100.00
2022-08-26T15:58:29.751Z,100.00
2022-08-26T16:00:57.362Z,100.00
2022-08-26T16:03:23.996Z,100.00
2022-08-26T16:05:50.741Z,100.00
2022-08-26T16:08:18.959Z,100.00
2022-08-26T16:10:50.513Z,100.00
2022-08-26T16:13:19.794Z,100.00
2022-08-26T16:15:48.075Z,100.00
2022-08-26T16:18:15.683Z,100.00
2022-08-26T16:21:12.442Z,100.00
2022-08-26T16:23:39.881Z,100.00
2022-08-26T16:26:11.447Z,100.00
2022-08-26T16:28:38.957Z,100.00
2022-08-26T16:31:06.920Z,100.00
2022-08-26T16:33:33.597Z,100.00
2022-08-26T16:36:00.274Z,100.00
2022-08-26T16:38:26.950Z,100.00
2022-08-26T16:40:53.506Z,100.00
2022-08-26T16:43:20.110Z,100.00
2022-08-26T16:45:46.791Z,100.00
2022-08-26T16:48:13.493Z,100.00
2022-08-26T16:50:42.197Z,100.00
2022-08-26T16:53:16.239Z,100.00
2022-08-26T16:55:50.445Z,100.00
2022-08-26T16:58:21.953Z,100.00
2022-08-26T17:00:49.670Z,100.00
2022-08-26T17:03:18.360Z,100.00
2022-08-26T17:05:44.996Z,100.00
2022-08-26T17:08:14.528Z,100.00
2022-08-26T17:10:51.601Z,100.00
2022-08-26T17:13:35.882Z,100.00
2022-08-26T17:16:05.049Z,100.00
2022-08-26T17:18:34.083Z,100.00
2022-08-26T17:21:03.486Z,100.00
2022-08-26T17:23:30.129Z,100.00
2022-08-26T17:25:57.186Z,100.00
2022-08-26T17:28:23.793Z,100.00
2022-08-26T17:30:50.698Z,100.00
2022-08-26T17:33:21.989Z,100.00
2022-08-26T17:35:51.470Z,100.00
2022-08-26T17:38:18.079Z,100.00
2022-08-26T17:40:45.724Z,100.00
2022-08-26T17:43:12.715Z,100.00
2022-08-26T17:45:40.568Z,100.00
2022-08-26T17:48:08.096Z,100.00
2022-08-26T17:50:35.010Z,100.00
2022-08-26T17:53:01.734Z,100.00
2022-08-26T17:55:29.091Z,100.00
2022-08-26T17:57:55.686Z,100.00
2022-08-26T18:00:26.494Z,100.00
2022-08-26T18:02:55.074Z,100.00
2022-08-26T18:05:22.297Z,100.00
2022-08-26T18:07:49.049Z,100.00
2022-08-26T18:10:18.186Z,100.00
2022-08-26T18:12:45.281Z,100.00
2022-08-26T18:15:13.742Z,100.00
2022-08-26T18:17:40.589Z,100.00
2022-08-26T18:20:15.080Z,100.00
2022-08-26T18:22:42.557Z,100.00
2022-08-26T18:25:12.428Z,100.00
2022-08-26T18:27:39.363Z,100.00
2022-08-26T18:30:11.356Z,100.00
2022-08-26T18:32:40.220Z,100.00
2022-08-26T18:35:07.936Z,100.00
2022-08-26T18:37:34.591Z,100.00
2022-08-26T18:40:01.297Z,100.00
2022-08-26T18:42:28.504Z,100.00
2022-08-26T18:44:55.080Z,100.00
2022-08-26T18:47:22.723Z,100.00
2022-08-26T18:49:50.936Z,100.00
2022-08-26T18:52:17.529Z,100.00
2022-08-26T18:54:44.211Z,100.00
2022-08-26T18:57:11.599Z,100.00
2022-08-26T18:59:38.903Z,100.00
2022-08-26T19:02:05.690Z,100.00
2022-08-26T19:04:33.669Z,100.00
2022-08-26T19:07:00.321Z,100.00
2022-08-26T19:09:27.280Z,100.00
2022-08-26T19:14:23.020Z,100.00
2022-08-26T19:16:52.483Z,100.00
2022-08-26T19:19:21.213Z,100.00
2022-08-26T19:21:47.866Z,100.00
2022-08-26T19:24:17.618Z,100.00
2022-08-26T19:26:50.341Z,100.00
2022-08-26T19:29:25.623Z,100.00
2022-08-26T19:31:52.253Z,100.00
2022-08-26T19:34:20.875Z,100.00
2022-08-26T19:36:48.279Z,100.00
2022-08-26T19:39:15.176Z,100.00
2022-08-26T19:41:41.864Z,100.00
2022-08-26T19:44:12.913Z,100.00
2022-08-26T19:46:39.738Z,100.00
2022-08-26T19:49:06.466Z,100.00
2022-08-26T19:51:34.752Z,100.00
2022-08-26T19:54:01.548Z,100.00
2022-08-26T19:56:38.033Z,100.00
2022-08-26T19:59:13.610Z,100.00
2022-08-26T20:01:40.520Z,100.00
2022-08-26T20:04:14.382Z,100.00
2022-08-26T20:06:40.993Z,100.00
2022-08-26T20:09:08.980Z,100.00
2022-08-26T20:11:36.025Z,100.00
2022-08-26T20:14:04.837Z,100.00
2022-08-26T20:16:32.851Z,100.00
2022-08-26T20:19:20.423Z,100.00
2022-08-26T20:21:47.169Z,100.00
2022-08-26T20:24:20.931Z,100.00
2022-08-26T20:26:48.938Z,100.00
2022-08-26T20:29:17.406Z,100.00
2022-08-26T20:31:46.757Z,100.00
2022-08-26T20:34:15.042Z,100.00
2022-08-26T20:36:42.575Z,100.00
2022-08-26T20:39:10.754Z,100.00
2022-08-26T20:41:38.347Z,100.00
2022-08-26T20:44:05.698Z,100.00
2022-08-26T20:46:34.670Z,100.00
2022-08-26T20:49:01.446Z,100.00
2022-08-26T20:51:28.583Z,100.00
2022-08-26T20:53:55.192Z,100.00
2022-08-26T20:56:24.353Z,100.00
2022-08-26T20:58:54.240Z,100.00
2022-08-26T21:01:24.462Z,100.00
2022-08-26T21:03:52.700Z,100.00
2022-08-26T21:06:25.632Z,100.00
2022-08-26T21:08:54.725Z,100.00
2022-08-26T21:11:23.135Z,100.00
2022-08-26T21:14:07.045Z,100.00
2022-08-26T21:16:41.840Z,100.00
2022-08-26T21:19:10.735Z,100.00
2022-08-26T21:21:37.916Z,100.00
2022-08-26T21:24:04.707Z,100.00
2022-08-26T21:26:31.477Z,100.00
2022-08-26T21:28:58.097Z,100.00
2022-08-26T21:31:25.543Z,100.00
2022-08-26T21:33:52.838Z,100.00
2022-08-26T21:36:20.234Z,100.00
2022-08-26T21:38:47.303Z,100.00
2022-08-26T21:41:18.753Z,100.00
2022-08-26T21:43:46.261Z,100.00
2022-08-26T21:46:16.515Z,100.00
2022-08-26T21:48:50.683Z,100.00
2022-08-26T21:51:20.139Z,100.00
2022-08-26T21:53:47.360Z,100.00
2022-08-26T21:56:21.433Z,100.00
2022-08-26T21:58:48.680Z,100.00
2022-08-26T22:01:22.161Z,100.00
2022-08-26T22:03:52.656Z,100.00
2022-08-26T22:06:22.646Z,100.00
2022-08-26T22:08:50.365Z,100.00
2022-08-26T22:11:17.516Z,100.00
2022-08-26T22:13:45.682Z,100.00
2022-08-26T22:16:13.345Z,100.00
2022-08-26T22:18:43.273Z,100.00
2022-08-26T22:21:18.180Z,100.00
2022-08-26T22:23:45.442Z,100.00
2022-08-26T22:26:14.380Z,100.00
2022-08-26T22:28:41.038Z,100.00
2022-08-26T22:31:10.179Z,100.00
2022-08-26T22:33:41.116Z,100.00
2022-08-26T22:36:08.122Z,100.00
2022-08-26T22:38:34.771Z,100.00
2022-08-26T22:41:03.426Z,100.00
2022-08-26T22:43:33.265Z,100.00
2022-08-26T22:45:59.927Z,100.00
2022-08-26T22:48:26.971Z,100.00
2022-08-26T22:50:59.688Z,100.00
2022-08-26T22:53:27.042Z,100.00
2022-08-26T22:55:54.264Z,100.00
2022-08-26T22:58:21.631Z,100.00
2022-08-26T23:00:57.705Z,100.00
2022-08-26T23:03:26.638Z,100.00
2022-08-26T23:05:53.530Z,100.00
2022-08-26T23:08:20.483Z,100.00
2022-08-26T23:10:48.347Z,100.00
2022-08-26T23:13:17.113Z,100.00
2022-08-26T23:15:44.705Z,100.00
2022-08-26T23:18:13.634Z,100.00
2022-08-26T23:20:41.016Z,100.00
2022-08-26T23:23:08.333Z,100.00
2022-08-26T23:25:36.964Z,100.00
2022-08-26T23:28:04.194Z,100.00
2022-08-26T23:30:32.610Z,100.00
2022-08-26T23:32:59.583Z,100.00
2022-08-26T23:35:29.390Z,100.00
2022-08-26T23:37:57.797Z,100.00
2022-08-26T23:40:28.801Z,100.00
2022-08-26T23:42:57.315Z,100.00
2022-08-26T23:45:25.639Z,100.00
2022-08-26T23:47:54.652Z,100.00
2022-08-26T23:50:43.903Z,100.00
2022-08-26T23:53:11.041Z,100.00
2022-08-26T23:55:39.223Z,100.00
2022-08-26T23:58:06.605Z,100.00
